sensor_id;sensor_type;location;lat;lon;timestamp;P1;durP1;ratioP1;P2;durP2;ratioP2
15693;SDS011;7947;48.834;9.132;2023-03-01T00:01:55;12.00;;;7.07;;
15693;SDS011;7947;48.834;9.132;2023-03-01T00:04:58;11.73;;;6.40;;
15693;SDS011;7947;48.834;9.132;2023-03-01T00:08:02;10.93;;;6.03;;
15693;SDS011;7947;48.834;9.132;2023-03-01T00:11:06;13.40;;;6.53;;
15693;SDS011;7947;48.834;9.132;2023-03-01T00:14:10;10.90;;;6.47;;
15693;SDS011;7947;48.834;9.132;2023-03-01T00:17:13;12.67;;;7.30;;
15693;SDS011;7947;48.834;9.132;2023-03-01T00:20:16;11.43;;;7.03;;
15693;SDS011;7947;48.834;9.132;2023-03-01T00:23:21;13.90;;;7.47;;
15693;SDS011;7947;48.834;9.132;2023-03-01T00:26:25;13.03;;;7.90;;
15693;SDS011;7947;48.834;9.132;2023-03-01T00:29:28;12.87;;;7.87;;
15693;SDS011;7947;48.834;9.132;2023-03-01T00:32:31;17.50;;;7.77;;
15693;SDS011;7947;48.834;9.132;2023-03-01T00:35:34;12.03;;;7.43;;
15693;SDS011;7947;48.834;9.132;2023-03-01T00:38:40;13.83;;;7.40;;
15693;SDS011;7947;48.834;9.132;2023-03-01T00:41:43;12.43;;;7.20;;
15693;SDS011;7947;48.834;9.132;2023-03-01T00:44:46;13.80;;;7.00;;
15693;SDS011;7947;48.834;9.132;2023-03-01T00:47:49;12.30;;;6.83;;
15693;SDS011;7947;48.834;9.132;2023-03-01T00:50:53;13.33;;;6.90;;
15693;SDS011;7947;48.834;9.132;2023-03-01T00:53:58;11.93;;;6.10;;
15693;SDS011;7947;48.834;9.132;2023-03-01T00:57:02;10.23;;;6.37;;
15693;SDS011;7947;48.834;9.132;2023-03-01T01:00:06;14.83;;;7.43;;
15693;SDS011;7947;48.834;9.132;2023-03-01T01:03:11;12.27;;;6.33;;
15693;SDS011;7947;48.834;9.132;2023-03-01T01:06:14;11.67;;;5.93;;
15693;SDS011;7947;48.834;9.132;2023-03-01T01:09:24;12.50;;;6.03;;
15693;SDS011;7947;48.834;9.132;2023-03-01T01:12:27;10.73;;;6.20;;
15693;SDS011;7947;48.834;9.132;2023-03-01T01:15:33;10.40;;;6.77;;
15693;SDS011;7947;48.834;9.132;2023-03-01T01:18:36;10.07;;;6.13;;
15693;SDS011;7947;48.834;9.132;2023-03-01T01:21:40;12.63;;;6.47;;
15693;SDS011;7947;48.834;9.132;2023-03-01T01:24:45;12.00;;;6.57;;
15693;SDS011;7947;48.834;9.132;2023-03-01T01:27:49;10.77;;;5.70;;
15693;SDS011;7947;48.834;9.132;2023-03-01T01:30:52;9.97;;;6.30;;
15693;SDS011;7947;48.834;9.132;2023-03-01T01:33:55;13.13;;;6.97;;
15693;SDS011;7947;48.834;9.132;2023-03-01T01:36:58;14.43;;;6.87;;
15693;SDS011;7947;48.834;9.132;2023-03-01T01:40:05;9.67;;;6.33;;
15693;SDS011;7947;48.834;9.132;2023-03-01T01:43:11;9.23;;;7.10;;
15693;SDS011;7947;48.834;9.132;2023-03-01T01:46:21;13.00;;;6.63;;
15693;SDS011;7947;48.834;9.132;2023-03-01T01:49:31;12.30;;;6.77;;
15693;SDS011;7947;48.834;9.132;2023-03-01T01:52:37;13.50;;;6.90;;
15693;SDS011;7947;48.834;9.132;2023-03-01T01:55:42;11.87;;;6.83;;
15693;SDS011;7947;48.834;9.132;2023-03-01T01:58:47;9.53;;;5.87;;
15693;SDS011;7947;48.834;9.132;2023-03-01T02:01:50;11.60;;;6.73;;
15693;SDS011;7947;48.834;9.132;2023-03-01T02:04:55;10.13;;;6.20;;
15693;SDS011;7947;48.834;9.132;2023-03-01T02:08:05;10.37;;;6.53;;
15693;SDS011;7947;48.834;9.132;2023-03-01T02:11:09;12.13;;;6.97;;
15693;SDS011;7947;48.834;9.132;2023-03-01T02:14:16;10.03;;;6.57;;
15693;SDS011;7947;48.834;9.132;2023-03-01T02:17:19;12.53;;;7.07;;
15693;SDS011;7947;48.834;9.132;2023-03-01T02:20:26;12.80;;;7.33;;
15693;SDS011;7947;48.834;9.132;2023-03-01T02:23:35;12.83;;;7.80;;
15693;SDS011;7947;48.834;9.132;2023-03-01T02:26:41;10.83;;;7.57;;
15693;SDS011;7947;48.834;9.132;2023-03-01T02:29:48;13.90;;;7.57;;
15693;SDS011;7947;48.834;9.132;2023-03-01T02:32:51;14.40;;;7.53;;
15693;SDS011;7947;48.834;9.132;2023-03-01T02:36:05;15.17;;;7.73;;
15693;SDS011;7947;48.834;9.132;2023-03-01T02:39:11;13.67;;;7.43;;
15693;SDS011;7947;48.834;9.132;2023-03-01T02:42:21;13.70;;;7.37;;
15693;SDS011;7947;48.834;9.132;2023-03-01T02:45:29;12.47;;;7.77;;
15693;SDS011;7947;48.834;9.132;2023-03-01T02:48:39;16.87;;;8.00;;
15693;SDS011;7947;48.834;9.132;2023-03-01T02:51:45;11.80;;;7.33;;
15693;SDS011;7947;48.834;9.132;2023-03-01T02:54:58;11.00;;;7.17;;
15693;SDS011;7947;48.834;9.132;2023-03-01T02:58:03;11.77;;;7.20;;
15693;SDS011;7947;48.834;9.132;2023-03-01T03:01:08;13.93;;;7.60;;
15693;SDS011;7947;48.834;9.132;2023-03-01T03:04:12;11.73;;;6.70;;
15693;SDS011;7947;48.834;9.132;2023-03-01T03:07:19;13.20;;;7.33;;
15693;SDS011;7947;48.834;9.132;2023-03-01T03:10:23;13.60;;;6.93;;
15693;SDS011;7947;48.834;9.132;2023-03-01T03:13:29;13.20;;;8.33;;
15693;SDS011;7947;48.834;9.132;2023-03-01T03:16:33;12.87;;;8.13;;
15693;SDS011;7947;48.834;9.132;2023-03-01T03:19:36;11.60;;;7.40;;
15693;SDS011;7947;48.834;9.132;2023-03-01T03:22:39;12.47;;;7.37;;
15693;SDS011;7947;48.834;9.132;2023-03-01T03:25:42;16.33;;;8.10;;
15693;SDS011;7947;48.834;9.132;2023-03-01T03:28:45;11.03;;;7.30;;
15693;SDS011;7947;48.834;9.132;2023-03-01T03:31:49;13.90;;;7.47;;
15693;SDS011;7947;48.834;9.132;2023-03-01T03:34:52;12.73;;;6.60;;
15693;SDS011;7947;48.834;9.132;2023-03-01T03:37:54;10.27;;;6.73;;
15693;SDS011;7947;48.834;9.132;2023-03-01T03:41:05;11.20;;;6.77;;
15693;SDS011;7947;48.834;9.132;2023-03-01T03:44:09;14.27;;;7.57;;
15693;SDS011;7947;48.834;9.132;2023-03-01T03:47:13;14.30;;;8.27;;
15693;SDS011;7947;48.834;9.132;2023-03-01T03:50:17;11.17;;;7.00;;
15693;SDS011;7947;48.834;9.132;2023-03-01T03:53:20;13.10;;;7.97;;
15693;SDS011;7947;48.834;9.132;2023-03-01T03:56:25;12.93;;;7.93;;
15693;SDS011;7947;48.834;9.132;2023-03-01T03:59:29;13.07;;;8.10;;
15693;SDS011;7947;48.834;9.132;2023-03-01T04:02:33;13.50;;;8.13;;
15693;SDS011;7947;48.834;9.132;2023-03-01T04:05:36;12.30;;;7.47;;
15693;SDS011;7947;48.834;9.132;2023-03-01T04:08:39;14.33;;;7.80;;
15693;SDS011;7947;48.834;9.132;2023-03-01T04:11:43;11.43;;;7.43;;
15693;SDS011;7947;48.834;9.132;2023-03-01T04:14:46;11.33;;;7.47;;
15693;SDS011;7947;48.834;9.132;2023-03-01T04:17:50;11.97;;;7.10;;
15693;SDS011;7947;48.834;9.132;2023-03-01T04:20:54;13.20;;;7.70;;
15693;SDS011;7947;48.834;9.132;2023-03-01T04:23:57;14.33;;;7.33;;
15693;SDS011;7947;48.834;9.132;2023-03-01T04:27:00;18.67;;;8.60;;
15693;SDS011;7947;48.834;9.132;2023-03-01T04:30:03;12.10;;;7.73;;
15693;SDS011;7947;48.834;9.132;2023-03-01T04:33:08;13.40;;;7.50;;
15693;SDS011;7947;48.834;9.132;2023-03-01T04:36:13;15.47;;;7.87;;
15693;SDS011;7947;48.834;9.132;2023-03-01T04:39:19;13.37;;;7.73;;
15693;SDS011;7947;48.834;9.132;2023-03-01T04:42:21;14.87;;;8.50;;
15693;SDS011;7947;48.834;9.132;2023-03-01T04:45:24;11.53;;;7.33;;
15693;SDS011;7947;48.834;9.132;2023-03-01T04:48:28;15.30;;;7.53;;
15693;SDS011;7947;48.834;9.132;2023-03-01T04:51:32;11.93;;;7.73;;
15693;SDS011;7947;48.834;9.132;2023-03-01T04:54:35;14.43;;;8.20;;
15693;SDS011;7947;48.834;9.132;2023-03-01T04:57:38;14.37;;;8.40;;
15693;SDS011;7947;48.834;9.132;2023-03-01T05:00:41;15.27;;;8.43;;
15693;SDS011;7947;48.834;9.132;2023-03-01T05:03:46;15.27;;;8.40;;
15693;SDS011;7947;48.834;9.132;2023-03-01T05:06:50;14.43;;;8.23;;
15693;SDS011;7947;48.834;9.132;2023-03-01T05:09:54;13.90;;;8.63;;
15693;SDS011;7947;48.834;9.132;2023-03-01T05:12:57;15.43;;;8.43;;
15693;SDS011;7947;48.834;9.132;2023-03-01T05:16:01;15.03;;;8.47;;
15693;SDS011;7947;48.834;9.132;2023-03-01T05:19:07;16.53;;;8.77;;
15693;SDS011;7947;48.834;9.132;2023-03-01T05:22:16;16.13;;;8.23;;
15693;SDS011;7947;48.834;9.132;2023-03-01T05:25:20;15.43;;;8.40;;
15693;SDS011;7947;48.834;9.132;2023-03-01T05:28:23;15.00;;;8.57;;
15693;SDS011;7947;48.834;9.132;2023-03-01T05:31:27;15.27;;;8.87;;
15693;SDS011;7947;48.834;9.132;2023-03-01T05:34:34;15.13;;;8.03;;
15693;SDS011;7947;48.834;9.132;2023-03-01T05:37:38;16.30;;;9.33;;
15693;SDS011;7947;48.834;9.132;2023-03-01T05:40:43;14.27;;;8.70;;
15693;SDS011;7947;48.834;9.132;2023-03-01T05:43:47;15.67;;;8.63;;
15693;SDS011;7947;48.834;9.132;2023-03-01T05:46:50;16.60;;;8.63;;
15693;SDS011;7947;48.834;9.132;2023-03-01T05:49:55;16.40;;;9.53;;
15693;SDS011;7947;48.834;9.132;2023-03-01T05:52:58;15.77;;;9.03;;
15693;SDS011;7947;48.834;9.132;2023-03-01T05:56:02;14.10;;;8.60;;
15693;SDS011;7947;48.834;9.132;2023-03-01T05:59:06;16.90;;;9.20;;
15693;SDS011;7947;48.834;9.132;2023-03-01T06:02:09;16.97;;;9.40;;
15693;SDS011;7947;48.834;9.132;2023-03-01T06:05:13;16.50;;;9.27;;
15693;SDS011;7947;48.834;9.132;2023-03-01T06:08:17;15.57;;;9.20;;
15693;SDS011;7947;48.834;9.132;2023-03-01T06:11:21;17.00;;;9.20;;
15693;SDS011;7947;48.834;9.132;2023-03-01T06:14:24;15.53;;;9.73;;
15693;SDS011;7947;48.834;9.132;2023-03-01T06:17:28;15.80;;;9.03;;
15693;SDS011;7947;48.834;9.132;2023-03-01T06:20:33;14.53;;;8.20;;
15693;SDS011;7947;48.834;9.132;2023-03-01T06:23:36;13.60;;;8.30;;
15693;SDS011;7947;48.834;9.132;2023-03-01T06:26:39;14.60;;;8.63;;
15693;SDS011;7947;48.834;9.132;2023-03-01T06:29:42;14.07;;;8.70;;
15693;SDS011;7947;48.834;9.132;2023-03-01T06:32:44;15.77;;;9.30;;
15693;SDS011;7947;48.834;9.132;2023-03-01T06:35:49;15.17;;;9.17;;
15693;SDS011;7947;48.834;9.132;2023-03-01T06:38:52;14.87;;;9.13;;
15693;SDS011;7947;48.834;9.132;2023-03-01T06:41:55;15.07;;;9.43;;
15693;SDS011;7947;48.834;9.132;2023-03-01T06:44:58;15.57;;;9.13;;
15693;SDS011;7947;48.834;9.132;2023-03-01T06:48:01;17.10;;;9.60;;
15693;SDS011;7947;48.834;9.132;2023-03-01T06:51:07;14.87;;;8.73;;
15693;SDS011;7947;48.834;9.132;2023-03-01T06:54:10;15.73;;;8.90;;
15693;SDS011;7947;48.834;9.132;2023-03-01T06:57:12;15.70;;;8.67;;
15693;SDS011;7947;48.834;9.132;2023-03-01T07:00:16;13.93;;;8.07;;
15693;SDS011;7947;48.834;9.132;2023-03-01T07:03:19;16.37;;;8.80;;
15693;SDS011;7947;48.834;9.132;2023-03-01T07:06:23;14.77;;;8.20;;
15693;SDS011;7947;48.834;9.132;2023-03-01T07:09:26;13.40;;;8.47;;
15693;SDS011;7947;48.834;9.132;2023-03-01T07:12:29;14.00;;;9.47;;
15693;SDS011;7947;48.834;9.132;2023-03-01T07:15:32;17.40;;;9.17;;
15693;SDS011;7947;48.834;9.132;2023-03-01T07:18:35;13.87;;;9.53;;
15693;SDS011;7947;48.834;9.132;2023-03-01T07:21:39;14.10;;;8.97;;
15693;SDS011;7947;48.834;9.132;2023-03-01T07:24:42;13.40;;;9.03;;
15693;SDS011;7947;48.834;9.132;2023-03-01T07:27:48;14.87;;;9.50;;
15693;SDS011;7947;48.834;9.132;2023-03-01T07:30:52;16.40;;;10.13;;
15693;SDS011;7947;48.834;9.132;2023-03-01T07:33:55;16.80;;;10.33;;
15693;SDS011;7947;48.834;9.132;2023-03-01T07:36:59;20.13;;;10.83;;
15693;SDS011;7947;48.834;9.132;2023-03-01T07:40:02;17.53;;;10.70;;
15693;SDS011;7947;48.834;9.132;2023-03-01T07:43:06;19.07;;;10.53;;
15693;SDS011;7947;48.834;9.132;2023-03-01T07:46:09;17.93;;;10.30;;
15693;SDS011;7947;48.834;9.132;2023-03-01T07:49:12;17.37;;;9.70;;
15693;SDS011;7947;48.834;9.132;2023-03-01T07:52:17;18.33;;;10.53;;
15693;SDS011;7947;48.834;9.132;2023-03-01T07:55:19;14.83;;;9.40;;
15693;SDS011;7947;48.834;9.132;2023-03-01T07:58:22;17.13;;;9.47;;
15693;SDS011;7947;48.834;9.132;2023-03-01T08:01:25;18.37;;;10.20;;
15693;SDS011;7947;48.834;9.132;2023-03-01T08:04:28;18.10;;;9.63;;
15693;SDS011;7947;48.834;9.132;2023-03-01T08:07:32;19.80;;;9.97;;
15693;SDS011;7947;48.834;9.132;2023-03-01T08:10:35;17.87;;;9.13;;
15693;SDS011;7947;48.834;9.132;2023-03-01T08:13:39;19.30;;;10.13;;
15693;SDS011;7947;48.834;9.132;2023-03-01T08:16:42;15.13;;;10.00;;
15693;SDS011;7947;48.834;9.132;2023-03-01T08:19:45;23.57;;;10.97;;
15693;SDS011;7947;48.834;9.132;2023-03-01T08:22:49;17.13;;;9.03;;
15693;SDS011;7947;48.834;9.132;2023-03-01T08:25:52;18.07;;;9.27;;
15693;SDS011;7947;48.834;9.132;2023-03-01T08:28:55;19.50;;;10.07;;
15693;SDS011;7947;48.834;9.132;2023-03-01T08:31:59;18.37;;;9.93;;
15693;SDS011;7947;48.834;9.132;2023-03-01T08:35:02;18.63;;;9.37;;
15693;SDS011;7947;48.834;9.132;2023-03-01T08:38:07;19.13;;;10.40;;
15693;SDS011;7947;48.834;9.132;2023-03-01T08:41:10;19.77;;;10.03;;
15693;SDS011;7947;48.834;9.132;2023-03-01T08:44:13;17.27;;;10.20;;
15693;SDS011;7947;48.834;9.132;2023-03-01T08:47:17;16.97;;;9.53;;
15693;SDS011;7947;48.834;9.132;2023-03-01T08:50:20;16.30;;;9.83;;
15693;SDS011;7947;48.834;9.132;2023-03-01T08:53:26;18.77;;;10.63;;
15693;SDS011;7947;48.834;9.132;2023-03-01T08:56:29;15.97;;;9.40;;
15693;SDS011;7947;48.834;9.132;2023-03-01T08:59:33;17.40;;;9.50;;
15693;SDS011;7947;48.834;9.132;2023-03-01T09:02:38;17.63;;;10.10;;
15693;SDS011;7947;48.834;9.132;2023-03-01T09:05:41;17.27;;;9.57;;
15693;SDS011;7947;48.834;9.132;2023-03-01T09:08:46;20.07;;;10.43;;
15693;SDS011;7947;48.834;9.132;2023-03-01T09:11:50;20.43;;;11.40;;
15693;SDS011;7947;48.834;9.132;2023-03-01T09:14:52;18.07;;;9.90;;
15693;SDS011;7947;48.834;9.132;2023-03-01T09:17:55;16.93;;;10.53;;
15693;SDS011;7947;48.834;9.132;2023-03-01T09:21:01;19.43;;;10.10;;
15693;SDS011;7947;48.834;9.132;2023-03-01T09:24:12;19.50;;;10.43;;
15693;SDS011;7947;48.834;9.132;2023-03-01T09:27:16;18.33;;;10.07;;
15693;SDS011;7947;48.834;9.132;2023-03-01T09:30:20;19.47;;;10.03;;
15693;SDS011;7947;48.834;9.132;2023-03-01T09:33:23;18.93;;;9.80;;
15693;SDS011;7947;48.834;9.132;2023-03-01T09:36:26;19.33;;;11.00;;
15693;SDS011;7947;48.834;9.132;2023-03-01T09:39:31;16.90;;;10.03;;
15693;SDS011;7947;48.834;9.132;2023-03-01T09:42:34;17.77;;;10.07;;
15693;SDS011;7947;48.834;9.132;2023-03-01T09:45:40;19.80;;;10.43;;
15693;SDS011;7947;48.834;9.132;2023-03-01T09:48:48;19.50;;;10.27;;
15693;SDS011;7947;48.834;9.132;2023-03-01T09:51:55;21.10;;;10.73;;
15693;SDS011;7947;48.834;9.132;2023-03-01T09:55:04;15.33;;;9.77;;
15693;SDS011;7947;48.834;9.132;2023-03-01T09:58:29;17.27;;;9.57;;
15693;SDS011;7947;48.834;9.132;2023-03-01T10:01:38;18.47;;;10.07;;
15693;SDS011;7947;48.834;9.132;2023-03-01T10:04:50;17.33;;;10.57;;
15693;SDS011;7947;48.834;9.132;2023-03-01T10:07:57;19.77;;;10.80;;
15693;SDS011;7947;48.834;9.132;2023-03-01T10:11:16;17.17;;;10.27;;
15693;SDS011;7947;48.834;9.132;2023-03-01T10:14:28;17.17;;;10.30;;
15693;SDS011;7947;48.834;9.132;2023-03-01T10:17:37;18.03;;;10.83;;
15693;SDS011;7947;48.834;9.132;2023-03-01T10:20:48;15.50;;;9.77;;
15693;SDS011;7947;48.834;9.132;2023-03-01T10:23:55;16.47;;;10.33;;
15693;SDS011;7947;48.834;9.132;2023-03-01T10:27:08;17.83;;;11.53;;
15693;SDS011;7947;48.834;9.132;2023-03-01T10:30:19;17.27;;;10.53;;
15693;SDS011;7947;48.834;9.132;2023-03-01T10:33:25;18.60;;;10.37;;
15693;SDS011;7947;48.834;9.132;2023-03-01T10:36:31;18.30;;;10.57;;
15693;SDS011;7947;48.834;9.132;2023-03-01T10:39:37;18.27;;;10.17;;
15693;SDS011;7947;48.834;9.132;2023-03-01T10:42:59;16.83;;;10.70;;
15693;SDS011;7947;48.834;9.132;2023-03-01T10:46:08;18.67;;;9.97;;
15693;SDS011;7947;48.834;9.132;2023-03-01T10:49:25;16.23;;;10.47;;
15693;SDS011;7947;48.834;9.132;2023-03-01T10:52:30;14.60;;;10.37;;
15693;SDS011;7947;48.834;9.132;2023-03-01T10:55:35;17.43;;;10.43;;
15693;SDS011;7947;48.834;9.132;2023-03-01T10:58:56;16.97;;;10.47;;
15693;SDS011;7947;48.834;9.132;2023-03-01T11:02:01;20.83;;;10.77;;
15693;SDS011;7947;48.834;9.132;2023-03-01T11:05:25;15.23;;;9.90;;
15693;SDS011;7947;48.834;9.132;2023-03-01T11:08:30;14.33;;;9.63;;
15693;SDS011;7947;48.834;9.132;2023-03-01T11:11:35;14.53;;;9.63;;
15693;SDS011;7947;48.834;9.132;2023-03-01T11:14:45;14.53;;;9.97;;
15693;SDS011;7947;48.834;9.132;2023-03-01T11:17:49;13.33;;;8.90;;
15693;SDS011;7947;48.834;9.132;2023-03-01T11:21:01;14.77;;;9.23;;
15693;SDS011;7947;48.834;9.132;2023-03-01T11:24:06;15.33;;;9.50;;
15693;SDS011;7947;48.834;9.132;2023-03-01T11:27:16;15.27;;;9.50;;
15693;SDS011;7947;48.834;9.132;2023-03-01T11:30:24;14.53;;;9.40;;
15693;SDS011;7947;48.834;9.132;2023-03-01T11:33:33;13.80;;;9.07;;
15693;SDS011;7947;48.834;9.132;2023-03-01T11:36:40;13.37;;;8.60;;
15693;SDS011;7947;48.834;9.132;2023-03-01T11:39:50;14.83;;;9.57;;
15693;SDS011;7947;48.834;9.132;2023-03-01T11:43:03;12.80;;;9.10;;
15693;SDS011;7947;48.834;9.132;2023-03-01T11:46:25;14.03;;;9.50;;
15693;SDS011;7947;48.834;9.132;2023-03-01T11:49:58;13.23;;;8.90;;
15693;SDS011;7947;48.834;9.132;2023-03-01T11:53:19;14.83;;;9.00;;
15693;SDS011;7947;48.834;9.132;2023-03-01T11:56:34;14.20;;;9.20;;
15693;SDS011;7947;48.834;9.132;2023-03-01T12:03:27;15.73;;;9.07;;
15693;SDS011;7947;48.834;9.132;2023-03-01T12:06:40;13.23;;;8.60;;
15693;SDS011;7947;48.834;9.132;2023-03-01T12:09:57;13.50;;;8.97;;
15693;SDS011;7947;48.834;9.132;2023-03-01T12:13:19;14.33;;;9.67;;
15693;SDS011;7947;48.834;9.132;2023-03-01T12:20:26;14.47;;;9.43;;
15693;SDS011;7947;48.834;9.132;2023-03-01T12:23:39;14.17;;;9.13;;
15693;SDS011;7947;48.834;9.132;2023-03-01T12:27:06;18.90;;;9.23;;
15693;SDS011;7947;48.834;9.132;2023-03-01T12:30:27;13.50;;;9.13;;
15693;SDS011;7947;48.834;9.132;2023-03-01T12:33:40;13.17;;;8.80;;
15693;SDS011;7947;48.834;9.132;2023-03-01T12:36:58;12.67;;;8.13;;
15693;SDS011;7947;48.834;9.132;2023-03-01T12:40:22;14.90;;;9.37;;
15693;SDS011;7947;48.834;9.132;2023-03-01T12:43:41;13.33;;;9.03;;
15693;SDS011;7947;48.834;9.132;2023-03-01T12:46:57;12.97;;;9.37;;
15693;SDS011;7947;48.834;9.132;2023-03-01T12:50:22;14.70;;;8.87;;
15693;SDS011;7947;48.834;9.132;2023-03-01T12:53:28;14.57;;;9.17;;
15693;SDS011;7947;48.834;9.132;2023-03-01T12:56:34;15.23;;;9.37;;
15693;SDS011;7947;48.834;9.132;2023-03-01T12:59:39;14.10;;;8.73;;
15693;SDS011;7947;48.834;9.132;2023-03-01T13:02:52;14.23;;;9.43;;
15693;SDS011;7947;48.834;9.132;2023-03-01T13:06:06;15.80;;;10.17;;
15693;SDS011;7947;48.834;9.132;2023-03-01T13:09:18;13.47;;;9.23;;
15693;SDS011;7947;48.834;9.132;2023-03-01T13:12:46;15.30;;;8.60;;
15693;SDS011;7947;48.834;9.132;2023-03-01T13:15:54;13.17;;;8.37;;
15693;SDS011;7947;48.834;9.132;2023-03-01T13:19:06;11.83;;;8.77;;
15693;SDS011;7947;48.834;9.132;2023-03-01T13:22:25;14.40;;;8.60;;
15693;SDS011;7947;48.834;9.132;2023-03-01T13:25:31;17.30;;;10.37;;
15693;SDS011;7947;48.834;9.132;2023-03-01T13:28:47;13.60;;;8.40;;
15693;SDS011;7947;48.834;9.132;2023-03-01T13:31:55;15.60;;;9.73;;
15693;SDS011;7947;48.834;9.132;2023-03-01T13:35:00;13.57;;;8.83;;
15693;SDS011;7947;48.834;9.132;2023-03-01T13:41:52;14.10;;;9.23;;
15693;SDS011;7947;48.834;9.132;2023-03-01T13:44:56;16.43;;;9.73;;
15693;SDS011;7947;48.834;9.132;2023-03-01T13:48:01;13.10;;;8.57;;
15693;SDS011;7947;48.834;9.132;2023-03-01T13:51:07;15.23;;;8.83;;
15693;SDS011;7947;48.834;9.132;2023-03-01T13:54:12;13.73;;;9.43;;
15693;SDS011;7947;48.834;9.132;2023-03-01T13:57:20;15.43;;;9.73;;
15693;SDS011;7947;48.834;9.132;2023-03-01T14:00:28;13.93;;;10.10;;
15693;SDS011;7947;48.834;9.132;2023-03-01T14:03:39;13.37;;;9.33;;
15693;SDS011;7947;48.834;9.132;2023-03-01T14:06:44;14.00;;;8.80;;
15693;SDS011;7947;48.834;9.132;2023-03-01T14:09:47;12.23;;;8.83;;
15693;SDS011;7947;48.834;9.132;2023-03-01T14:12:57;16.77;;;10.10;;
15693;SDS011;7947;48.834;9.132;2023-03-01T14:16:20;14.73;;;9.70;;
15693;SDS011;7947;48.834;9.132;2023-03-01T14:19:28;13.93;;;8.80;;
15693;SDS011;7947;48.834;9.132;2023-03-01T14:22:34;15.20;;;10.27;;
15693;SDS011;7947;48.834;9.132;2023-03-01T14:25:38;15.77;;;9.90;;
15693;SDS011;7947;48.834;9.132;2023-03-01T14:28:51;17.33;;;9.93;;
15693;SDS011;7947;48.834;9.132;2023-03-01T14:31:54;15.53;;;9.57;;
15693;SDS011;7947;48.834;9.132;2023-03-01T14:34:57;13.87;;;10.07;;
15693;SDS011;7947;48.834;9.132;2023-03-01T14:38:01;18.50;;;10.07;;
15693;SDS011;7947;48.834;9.132;2023-03-01T14:41:05;18.23;;;9.90;;
15693;SDS011;7947;48.834;9.132;2023-03-01T14:44:14;15.33;;;9.57;;
15693;SDS011;7947;48.834;9.132;2023-03-01T14:47:23;16.27;;;9.90;;
15693;SDS011;7947;48.834;9.132;2023-03-01T14:50:30;18.57;;;10.43;;
15693;SDS011;7947;48.834;9.132;2023-03-01T14:53:34;16.80;;;10.13;;
15693;SDS011;7947;48.834;9.132;2023-03-01T14:56:51;17.03;;;9.47;;
15693;SDS011;7947;48.834;9.132;2023-03-01T14:59:57;18.37;;;9.70;;
15693;SDS011;7947;48.834;9.132;2023-03-01T15:03:06;17.53;;;10.57;;
15693;SDS011;7947;48.834;9.132;2023-03-01T15:06:15;16.60;;;9.40;;
15693;SDS011;7947;48.834;9.132;2023-03-01T15:09:20;16.23;;;9.70;;
15693;SDS011;7947;48.834;9.132;2023-03-01T15:12:34;16.00;;;9.90;;
15693;SDS011;7947;48.834;9.132;2023-03-01T15:15:41;17.23;;;10.00;;
15693;SDS011;7947;48.834;9.132;2023-03-01T15:18:48;16.67;;;9.70;;
15693;SDS011;7947;48.834;9.132;2023-03-01T15:21:53;17.33;;;10.17;;
15693;SDS011;7947;48.834;9.132;2023-03-01T15:24:56;16.17;;;10.10;;
15693;SDS011;7947;48.834;9.132;2023-03-01T15:28:00;18.63;;;9.60;;
15693;SDS011;7947;48.834;9.132;2023-03-01T15:31:07;14.23;;;8.77;;
15693;SDS011;7947;48.834;9.132;2023-03-01T15:34:22;15.27;;;9.47;;
15693;SDS011;7947;48.834;9.132;2023-03-01T15:37:36;15.70;;;8.90;;
15693;SDS011;7947;48.834;9.132;2023-03-01T15:40:48;15.73;;;10.33;;
15693;SDS011;7947;48.834;9.132;2023-03-01T15:43:52;16.93;;;10.50;;
15693;SDS011;7947;48.834;9.132;2023-03-01T15:46:58;16.37;;;9.47;;
15693;SDS011;7947;48.834;9.132;2023-03-01T15:50:01;19.43;;;10.37;;
15693;SDS011;7947;48.834;9.132;2023-03-01T15:53:05;15.53;;;9.90;;
15693;SDS011;7947;48.834;9.132;2023-03-01T15:56:12;19.80;;;9.90;;
15693;SDS011;7947;48.834;9.132;2023-03-01T15:59:15;16.03;;;9.77;;
15693;SDS011;7947;48.834;9.132;2023-03-01T16:02:19;15.53;;;9.20;;
15693;SDS011;7947;48.834;9.132;2023-03-01T16:05:23;18.17;;;9.83;;
15693;SDS011;7947;48.834;9.132;2023-03-01T16:08:28;17.03;;;9.70;;
15693;SDS011;7947;48.834;9.132;2023-03-01T16:11:30;14.83;;;8.77;;
15693;SDS011;7947;48.834;9.132;2023-03-01T16:14:33;12.13;;;8.50;;
15693;SDS011;7947;48.834;9.132;2023-03-01T16:17:38;15.07;;;8.70;;
15693;SDS011;7947;48.834;9.132;2023-03-01T16:20:41;14.90;;;9.33;;
15693;SDS011;7947;48.834;9.132;2023-03-01T16:23:44;13.83;;;8.73;;
15693;SDS011;7947;48.834;9.132;2023-03-01T16:26:47;13.40;;;9.00;;
15693;SDS011;7947;48.834;9.132;2023-03-01T16:29:49;15.70;;;9.80;;
15693;SDS011;7947;48.834;9.132;2023-03-01T16:32:54;15.27;;;9.07;;
15693;SDS011;7947;48.834;9.132;2023-03-01T16:35:56;15.57;;;8.97;;
15693;SDS011;7947;48.834;9.132;2023-03-01T16:39:01;16.80;;;9.83;;
15693;SDS011;7947;48.834;9.132;2023-03-01T16:42:04;14.40;;;9.00;;
15693;SDS011;7947;48.834;9.132;2023-03-01T16:45:07;19.73;;;9.73;;
15693;SDS011;7947;48.834;9.132;2023-03-01T16:48:25;18.47;;;9.33;;
15693;SDS011;7947;48.834;9.132;2023-03-01T16:51:28;17.50;;;9.13;;
15693;SDS011;7947;48.834;9.132;2023-03-01T16:54:32;15.43;;;9.50;;
15693;SDS011;7947;48.834;9.132;2023-03-01T16:57:35;14.90;;;9.60;;
15693;SDS011;7947;48.834;9.132;2023-03-01T17:00:39;12.70;;;8.53;;
15693;SDS011;7947;48.834;9.132;2023-03-01T17:03:43;14.00;;;8.20;;
15693;SDS011;7947;48.834;9.132;2023-03-01T17:06:48;15.33;;;8.57;;
15693;SDS011;7947;48.834;9.132;2023-03-01T17:09:51;14.40;;;8.77;;
15693;SDS011;7947;48.834;9.132;2023-03-01T17:12:54;14.43;;;9.67;;
15693;SDS011;7947;48.834;9.132;2023-03-01T17:15:57;14.90;;;8.83;;
15693;SDS011;7947;48.834;9.132;2023-03-01T17:19:01;14.20;;;8.43;;
15693;SDS011;7947;48.834;9.132;2023-03-01T17:22:04;12.87;;;8.50;;
15693;SDS011;7947;48.834;9.132;2023-03-01T17:25:07;16.27;;;8.93;;
15693;SDS011;7947;48.834;9.132;2023-03-01T17:28:10;16.77;;;8.97;;
15693;SDS011;7947;48.834;9.132;2023-03-01T17:31:14;14.47;;;8.73;;
15693;SDS011;7947;48.834;9.132;2023-03-01T17:34:19;15.20;;;9.00;;
15693;SDS011;7947;48.834;9.132;2023-03-01T17:37:21;14.57;;;9.67;;
15693;SDS011;7947;48.834;9.132;2023-03-01T17:40:25;17.17;;;8.70;;
15693;SDS011;7947;48.834;9.132;2023-03-01T17:43:28;15.73;;;9.40;;
15693;SDS011;7947;48.834;9.132;2023-03-01T17:46:31;15.87;;;8.80;;
15693;SDS011;7947;48.834;9.132;2023-03-01T17:49:36;15.67;;;9.23;;
15693;SDS011;7947;48.834;9.132;2023-03-01T17:52:39;15.00;;;9.10;;
15693;SDS011;7947;48.834;9.132;2023-03-01T17:55:43;17.17;;;9.37;;
15693;SDS011;7947;48.834;9.132;2023-03-01T17:58:46;15.73;;;9.37;;
15693;SDS011;7947;48.834;9.132;2023-03-01T18:01:49;13.23;;;9.07;;
15693;SDS011;7947;48.834;9.132;2023-03-01T18:04:55;14.77;;;9.90;;
15693;SDS011;7947;48.834;9.132;2023-03-01T18:07:59;15.43;;;8.67;;
15693;SDS011;7947;48.834;9.132;2023-03-01T18:11:01;17.27;;;9.73;;
15693;SDS011;7947;48.834;9.132;2023-03-01T18:14:04;18.70;;;9.03;;
15693;SDS011;7947;48.834;9.132;2023-03-01T18:17:07;17.47;;;9.33;;
15693;SDS011;7947;48.834;9.132;2023-03-01T18:20:13;15.80;;;8.70;;
15693;SDS011;7947;48.834;9.132;2023-03-01T18:23:18;19.73;;;10.17;;
15693;SDS011;7947;48.834;9.132;2023-03-01T18:26:21;14.83;;;9.23;;
15693;SDS011;7947;48.834;9.132;2023-03-01T18:29:25;15.63;;;9.17;;
15693;SDS011;7947;48.834;9.132;2023-03-01T18:32:28;13.83;;;9.30;;
15693;SDS011;7947;48.834;9.132;2023-03-01T18:35:35;16.07;;;9.60;;
15693;SDS011;7947;48.834;9.132;2023-03-01T18:38:39;15.00;;;9.33;;
15693;SDS011;7947;48.834;9.132;2023-03-01T18:41:42;19.97;;;10.37;;
15693;SDS011;7947;48.834;9.132;2023-03-01T18:44:44;17.97;;;9.80;;
15693;SDS011;7947;48.834;9.132;2023-03-01T18:47:47;16.53;;;9.40;;
15693;SDS011;7947;48.834;9.132;2023-03-01T18:50:52;17.10;;;9.40;;